Sheffield, Illinois
Current Conditions -  °F | °C
As of 7:55 AM on Thursday 23 Oct 2014 (Local Time) from KSQI Reporting Station
Clear Clear  
Wind Chill: 32°   Ceiling: Unl
Heat Index: 36°   Visibility: 7mi
Dew Point: 30°   Wind: 5mph
Humidity: 81%   Direction: 130°SE
Pressure: 30.18"   Gusts: NA
Location:  41.36°N, 89.74°W
Report Text: KSQI 231255Z AUTO 13004KT 7SM CLR 02/M01 A3018 RMK AO1
Loading
Personal Weather Stations






























Interactive Weather Map
Tropical Storm Tracking
New forecast layout! Learn more

10-Day Weather Forecast

Advertisements
Track Severe Weather on mobile